Time;durP1;ratioP1;P1;durP2;ratioP2;P2;SDS_P1;SDS_P2;PMS_P1;PMS_P2;Temp;Humidity;BMP_temperature;BMP_pressure;BME280_temperature;BME280_humidity;BME280_pressure;Samples;Min_cycle;Max_cycle;Signal;HPM_P1;HPM_P2
2023/02/10 00:01:17;;;;;;;10.53;6.50;;;25.40;70.10;;;;;;5064137;28;20677;-72
2023/02/10 00:03:45;;;;;;;12.67;6.37;;;25.50;70.30;;;;;;5064234;28;20210;-71
2023/02/10 00:06:13;;;;;;;7.60;6.10;;;25.50;70.60;;;;;;5067376;28;20187;-73
2023/02/10 00:08:41;;;;;;;9.30;6.37;;;25.60;70.20;;;;;;5067632;28;20195;-72
2023/02/10 00:11:11;;;;;;;8.10;6.10;;;25.70;70.30;;;;;;5063122;28;20240;-72
2023/02/10 00:13:39;;;;;;;8.43;6.60;;;25.80;69.30;;;;;;5067146;28;20659;-71
2023/02/10 00:16:08;;;;;;;10.23;5.83;;;25.90;69.00;;;;;;5065986;28;20226;-72
2023/02/10 00:18:45;;;;;;;8.03;6.10;;;26.00;68.30;;;;;;5067490;28;20253;-76
2023/02/10 00:21:37;;;;;;;9.20;6.13;;;25.80;69.60;;;;;;5071087;28;20738;-79
2023/02/10 00:24:31;;;;;;;9.20;6.00;;;25.80;68.70;;;;;;5061944;28;20326;-73
2023/02/10 00:27:01;;;;;;;6.93;5.80;;;26.00;68.40;;;;;;5055398;28;20249;-74
2023/02/10 00:29:31;;;;;;;8.13;5.70;;;26.20;69.40;;;;;;5066610;28;20987;-74
2023/02/10 00:32:10;;;;;;;8.33;5.43;;;26.40;67.50;;;;;;5067221;28;20241;-75
2023/02/10 00:34:38;;;;;;;7.23;5.30;;;26.50;66.90;;;;;;5066905;28;20198;-76
2023/02/10 00:37:09;;;;;;;6.90;5.77;;;26.80;65.90;;;;;;5071716;28;20203;-74
2023/02/10 00:39:39;;;;;;;9.00;6.10;;;26.80;65.70;;;;;;5065781;28;20179;-75
2023/02/10 00:42:12;;;;;;;8.30;6.07;;;26.80;65.80;;;;;;5063639;28;20255;-77
2023/02/10 00:44:40;;;;;;;7.63;6.00;;;26.70;66.10;;;;;;5069579;28;20270;-75
2023/02/10 00:47:08;;;;;;;5.87;5.27;;;27.10;65.60;;;;;;5071464;28;20672;-76
2023/02/10 00:49:36;;;;;;;5.33;4.47;;;27.30;64.60;;;;;;5067274;28;20167;-71
2023/02/10 00:52:13;;;;;;;5.90;4.87;;;27.40;62.90;;;;;;5062619;28;20246;-75
2023/02/10 00:54:46;;;;;;;7.43;4.60;;;27.40;62.10;;;;;;5064166;28;20921;-75
2023/02/10 00:57:23;;;;;;;6.33;4.63;;;27.50;62.50;;;;;;5071092;28;20207;-76
2023/02/10 00:59:54;;;;;;;7.73;4.93;;;27.90;61.70;;;;;;5069614;28;20261;-71
2023/02/10 01:02:22;;;;;;;5.00;4.30;;;27.90;60.70;;;;;;5066602;28;20198;-71
2023/02/10 01:04:53;;;;;;;7.23;4.37;;;27.90;59.20;;;;;;5066840;28;20224;-74
2023/02/10 01:07:24;;;;;;;5.90;3.50;;;28.10;60.10;;;;;;5068585;28;20217;-77
2023/02/10 01:10:01;;;;;;;6.00;4.30;;;28.20;57.20;;;;;;5069968;28;20209;-74
2023/02/10 01:12:37;;;;;;;7.70;4.07;;;28.30;59.30;;;;;;5064289;28;20183;-76
2023/02/10 01:15:05;;;;;;;5.13;3.20;;;28.30;58.70;;;;;;5066811;28;20194;-70
2023/02/10 01:17:36;;;;;;;4.17;3.33;;;28.30;55.00;;;;;;5068292;28;20272;-75
2023/02/10 01:20:06;;;;;;;5.50;4.07;;;28.40;55.30;;;;;;5069741;28;20180;-72
2023/02/10 01:22:34;;;;;;;5.77;3.30;;;28.60;55.90;;;;;;5069288;28;20288;-74
2023/02/10 01:25:08;;;;;;;5.20;3.37;;;28.60;55.70;;;;;;5070160;28;20266;-73
2023/02/10 01:27:35;;;;;;;4.13;3.70;;;28.60;55.30;;;;;;5072160;28;20183;-71
2023/02/10 01:30:03;;;;;;;6.40;3.70;;;28.70;54.60;;;;;;5069569;28;20179;-71
2023/02/10 01:32:30;;;;;;;4.57;3.40;;;28.60;55.10;;;;;;5063584;28;20187;-71
2023/02/10 01:34:57;;;;;;;4.50;3.40;;;28.70;54.60;;;;;;5070754;28;20172;-70
2023/02/10 01:37:25;;;;;;;4.07;3.20;;;28.80;55.00;;;;;;5073319;28;20207;-71
2023/02/10 01:39:52;;;;;;;3.67;3.23;;;28.90;53.90;;;;;;5072919;28;20598;-71
2023/02/10 01:42:19;;;;;;;5.07;3.93;;;29.20;53.50;;;;;;5073250;28;20684;-70
2023/02/10 01:44:47;;;;;;;9.67;3.73;;;29.30;54.00;;;;;;5074481;28;20209;-70
2023/02/10 01:47:14;;;;;;;6.40;3.47;;;29.50;53.20;;;;;;5075577;28;20183;-70
2023/02/10 01:49:47;;;;;;;4.27;3.43;;;29.60;52.00;;;;;;5077553;28;20187;-71
2023/02/10 01:52:22;;;;;;;4.13;3.40;;;29.80;53.50;;;;;;5073825;28;20700;-72
2023/02/10 01:55:09;;;;;;;5.00;3.37;;;29.90;51.80;;;;;;5073740;28;20183;-71
2023/02/10 01:57:40;;;;;;;4.97;2.93;;;29.90;51.40;;;;;;5068734;28;20321;-72
2023/02/10 02:00:09;;;;;;;5.53;3.17;;;29.80;49.50;;;;;;5073853;28;20202;-71
2023/02/10 02:02:37;;;;;;;4.33;2.73;;;30.10;49.60;;;;;;5069228;28;20272;-73
2023/02/10 02:05:40;;;;;;;5.10;2.87;;;29.60;51.50;;;;;;5072408;28;20270;-72
2023/02/10 02:08:28;;;;;;;5.53;3.63;;;29.50;52.70;;;;;;5072586;28;20187;-75
2023/02/10 02:11:15;;;;;;;5.70;3.60;;;29.90;53.40;;;;;;5071684;28;20174;-71
2023/02/10 02:14:10;;;;;;;5.57;3.60;;;29.90;54.00;;;;;;5073383;28;20519;-70
2023/02/10 02:16:50;;;;;;;3.40;3.10;;;29.80;52.60;;;;;;5072069;28;20222;-70
2023/02/10 02:20:39;;;;;;;5.73;3.90;;;30.00;52.00;;;;;;5073422;28;20545;-72
2023/02/10 02:23:17;;;;;;;5.60;3.63;;;30.00;55.80;;;;;;5071693;28;20657;-71
2023/02/10 02:25:51;;;;;;;6.03;3.30;;;30.00;55.60;;;;;;5072954;28;20178;-71
2023/02/10 02:28:35;;;;;;;9.97;4.20;;;30.30;55.60;;;;;;5073572;28;20182;-72
2023/02/10 02:31:39;;;;;;;7.63;3.97;;;30.50;56.50;;;;;;5073199;28;20206;-72
2023/02/10 02:34:09;;;;;;;7.67;3.77;;;30.10;56.60;;;;;;5072381;28;20540;-71
2023/02/10 02:36:43;;;;;;;7.43;3.77;;;30.30;56.00;;;;;;5073073;28;20256;-73
2023/02/10 02:39:10;;;;;;;8.13;3.67;;;29.80;55.00;;;;;;5068059;28;20721;-70
2023/02/10 02:41:38;;;;;;;5.97;3.40;;;29.90;56.30;;;;;;5071673;28;20183;-70
2023/02/10 02:44:07;;;;;;;6.27;3.47;;;30.30;55.10;;;;;;5072120;28;20179;-71
2023/02/10 02:46:40;;;;;;;6.07;3.23;;;30.40;53.30;;;;;;5072881;28;20266;-71
2023/02/10 02:49:15;;;;;;;4.90;3.40;;;30.60;52.80;;;;;;5070863;28;20171;-70
2023/02/10 02:51:59;;;;;;;4.77;2.70;;;30.50;53.10;;;;;;5070509;28;20237;-70
2023/02/10 02:54:35;;;;;;;4.47;3.40;;;30.80;52.40;;;;;;5071232;28;20550;-69
2023/02/10 02:57:09;;;;;;;5.30;3.20;;;30.40;54.30;;;;;;5070150;28;20207;-70
2023/02/10 03:00:30;;;;;;;6.97;3.10;;;30.80;53.80;;;;;;5070282;28;20532;-70
2023/02/10 03:02:59;;;;;;;6.25;3.58;;;30.60;53.80;;;;;;5048236;28;20521;-71
2023/02/10 03:05:31;;;;;;;6.23;3.30;;;30.80;54.10;;;;;;5045058;28;20175;-68
2023/02/10 03:07:59;;;;;;;6.88;2.63;;;30.30;56.00;;;;;;5057390;28;20274;-73
2023/02/10 03:10:26;;;;;;;4.93;2.67;;;30.60;55.30;;;;;;5065982;28;20171;-71
2023/02/10 03:12:53;;;;;;;5.65;2.92;;;30.10;56.10;;;;;;5063907;28;20620;-70
2023/02/10 03:15:21;;;;;;;6.53;3.28;;;30.20;56.30;;;;;;5072334;28;20213;-69
2023/02/10 03:17:48;;;;;;;6.50;3.17;;;30.30;56.20;;;;;;5066445;28;20215;-71
2023/02/10 03:20:16;;;;;;;6.03;2.93;;;30.40;55.50;;;;;;5071805;28;20262;-71
2023/02/10 03:22:43;;;;;;;4.90;2.93;;;30.50;56.30;;;;;;5072968;28;20602;-70
2023/02/10 03:25:11;;;;;;;5.20;3.50;;;30.30;54.70;;;;;;5064658;28;20187;-70
2023/02/10 03:27:38;;;;;;;4.50;2.75;;;30.50;54.70;;;;;;5066183;28;20176;-70
2023/02/10 03:30:06;;;;;;;5.90;3.17;;;30.80;53.60;;;;;;5072247;28;20625;-66
2023/02/10 03:32:33;;;;;;;5.05;2.92;;;30.60;55.20;;;;;;5070081;28;20179;-70
2023/02/10 03:35:00;;;;;;;5.80;3.50;;;30.70;55.10;;;;;;5065827;28;20187;-70
2023/02/10 03:37:27;;;;;;;5.40;2.83;;;30.70;54.80;;;;;;5070886;28;20302;-71
2023/02/10 03:39:55;;;;;;;7.32;3.15;;;30.90;54.20;;;;;;5065880;28;20260;-73
2023/02/10 03:42:22;;;;;;;6.70;2.92;;;30.80;54.90;;;;;;5068777;28;20190;-73
2023/02/10 03:44:49;;;;;;;7.93;3.08;;;30.30;54.80;;;;;;5071113;28;20633;-75
2023/02/10 03:47:17;;;;;;;6.53;3.00;;;30.60;54.90;;;;;;5071706;28;20257;-75
2023/02/10 03:49:44;;;;;;;4.53;2.55;;;30.30;55.50;;;;;;5066706;28;20186;-71
2023/02/10 03:52:12;;;;;;;4.15;2.85;;;30.60;55.40;;;;;;5071118;28;20226;-73
2023/02/10 03:54:39;;;;;;;4.90;3.13;;;30.90;54.10;;;;;;5064632;28;20638;-77
2023/02/10 03:57:06;;;;;;;7.82;2.85;;;31.00;53.00;;;;;;5063518;28;20221;-78
2023/02/10 03:59:34;;;;;;;6.93;2.53;;;30.90;53.20;;;;;;5068934;28;20233;-74
2023/02/10 04:02:01;;;;;;;5.65;2.70;;;30.60;54.10;;;;;;5068942;28;20183;-71
2023/02/10 04:04:29;;;;;;;4.70;2.83;;;30.70;54.80;;;;;;5065730;28;20183;-76
2023/02/10 04:06:56;;;;;;;4.65;2.50;;;30.30;54.90;;;;;;5070057;28;20535;-73
2023/02/10 04:09:23;;;;;;;6.68;3.08;;;30.40;54.60;;;;;;5064254;28;20175;-74
2023/02/10 04:11:51;;;;;;;5.88;2.83;;;30.60;54.00;;;;;;5070723;28;20171;-72
2023/02/10 04:14:18;;;;;;;4.20;2.80;;;30.80;53.40;;;;;;5066574;28;20228;-73
2023/02/10 04:16:45;;;;;;;2.95;2.65;;;31.30;52.50;;;;;;5071071;28;20207;-70
2023/02/10 04:19:13;;;;;;;6.85;2.80;;;32.00;51.60;;;;;;5069750;28;20187;-75
2023/02/10 04:21:40;;;;;;;5.70;3.25;;;31.80;51.60;;;;;;5069446;28;20179;-72
2023/02/10 04:24:07;;;;;;;4.28;2.72;;;31.70;53.20;;;;;;5071646;28;20179;-72
2023/02/10 04:26:35;;;;;;;6.60;2.65;;;32.00;50.90;;;;;;5070610;28;20214;-73
2023/02/10 04:29:02;;;;;;;3.85;2.85;;;31.50;51.20;;;;;;5067510;28;20541;-73
2023/02/10 04:31:30;;;;;;;6.05;2.63;;;31.30;51.80;;;;;;5070506;28;20220;-77
2023/02/10 04:33:57;;;;;;;4.78;2.80;;;31.30;50.80;;;;;;5063165;28;20265;-75
2023/02/10 04:36:25;;;;;;;2.95;2.20;;;30.80;52.00;;;;;;5065120;28;20677;-73
2023/02/10 04:38:53;;;;;;;5.00;3.13;;;30.60;53.20;;;;;;5069670;28;20195;-71
2023/02/10 04:41:20;;;;;;;6.97;2.90;;;31.10;53.30;;;;;;5069276;28;20179;-71
2023/02/10 04:43:47;;;;;;;6.65;2.53;;;31.30;53.90;;;;;;5066918;28;20283;-74
2023/02/10 04:46:15;;;;;;;5.55;2.65;;;31.10;54.60;;;;;;5071154;28;20288;-77
2023/02/10 04:48:42;;;;;;;5.47;3.20;;;30.70;57.00;;;;;;5070184;28;20183;-76
2023/02/10 04:51:11;;;;;;;4.25;2.45;;;30.90;56.70;;;;;;5068370;28;20175;-74
2023/02/10 04:53:43;;;;;;;8.13;2.65;;;30.90;57.00;;;;;;5071621;28;20578;-73
2023/02/10 04:56:11;;;;;;;9.55;2.83;;;31.00;57.30;;;;;;5069708;28;20320;-71
2023/02/10 04:58:38;;;;;;;6.65;2.60;;;31.90;54.70;;;;;;5065878;28;20321;-71
2023/02/10 05:01:06;;;;;;;6.57;3.15;;;32.00;54.60;;;;;;5070413;28;20189;-74
2023/02/10 05:03:33;;;;;;;5.57;2.67;;;32.70;52.90;;;;;;5071461;28;20544;-72
2023/02/10 05:06:10;;;;;;;5.85;2.95;;;32.10;54.40;;;;;;5074924;28;20282;-74
2023/02/10 05:08:41;;;;;;;5.43;2.92;;;32.30;53.90;;;;;;5071742;28;20970;-79
2023/02/10 05:11:13;;;;;;;6.25;2.92;;;32.40;53.30;;;;;;5073755;28;20236;-71
2023/02/10 05:13:41;;;;;;;5.57;2.60;;;32.10;53.50;;;;;;5073635;28;20186;-76
2023/02/10 05:16:10;;;;;;;3.08;2.40;;;31.90;53.60;;;;;;5067214;28;20187;-73
2023/02/10 05:18:39;;;;;;;5.10;2.50;;;32.10;52.70;;;;;;5074178;28;20199;-72
2023/02/10 05:21:07;;;;;;;3.75;2.15;;;32.30;52.20;;;;;;5073487;28;20187;-78
2023/02/10 05:23:36;;;;;;;5.30;2.50;;;32.20;51.70;;;;;;5074669;28;20262;-71
2023/02/10 05:26:04;;;;;;;5.90;2.30;;;31.60;52.70;;;;;;5065707;28;20563;-71
2023/02/10 05:28:31;;;;;;;6.57;2.70;;;32.40;51.00;;;;;;5074245;28;20187;-72
2023/02/10 05:30:58;;;;;;;2.85;2.05;;;32.60;51.60;;;;;;5065107;28;20284;-74
2023/02/10 05:33:25;;;;;;;4.45;2.08;;;32.30;52.00;;;;;;5073114;28;20543;-71
2023/02/10 05:35:53;;;;;;;3.45;2.45;;;32.20;52.70;;;;;;5074397;28;20187;-71
2023/02/10 05:38:20;;;;;;;3.78;2.05;;;32.00;52.30;;;;;;5067758;28;20211;-70
2023/02/10 05:40:49;;;;;;;3.75;1.85;;;32.40;51.40;;;;;;5073528;28;20190;-70
2023/02/10 05:43:17;;;;;;;4.57;2.33;;;32.30;52.20;;;;;;5077329;28;20183;-70
2023/02/10 05:45:47;;;;;;;5.65;2.80;;;31.80;52.70;;;;;;5074112;28;20179;-73
2023/02/10 05:48:14;;;;;;;2.83;2.13;;;32.70;51.00;;;;;;5074277;28;20183;-73
2023/02/10 05:50:42;;;;;;;7.53;2.72;;;31.80;52.40;;;;;;5074727;28;20179;-65
2023/02/10 05:53:17;;;;;;;3.85;2.10;;;31.80;52.70;;;;;;5066421;28;20231;-69
2023/02/10 05:55:46;;;;;;;10.95;3.13;;;31.90;51.70;;;;;;5070101;28;20198;-66
2023/02/10 05:58:14;;;;;;;4.53;2.40;;;31.50;52.00;;;;;;5072117;28;20681;-69
2023/02/10 06:00:43;;;;;;;3.33;2.60;;;31.70;52.20;;;;;;5067249;28;20191;-69
2023/02/10 06:03:11;;;;;;;4.75;2.60;;;31.40;52.80;;;;;;5071463;28;20191;-76
2023/02/10 06:05:39;;;;;;;3.65;2.40;;;30.60;54.20;;;;;;5072531;28;20650;-72
2023/02/10 06:08:07;;;;;;;6.10;2.50;;;30.90;53.50;;;;;;5070058;28;20262;-74
2023/02/10 06:10:34;;;;;;;6.47;2.70;;;30.40;53.70;;;;;;5071205;28;20723;-69
2023/02/10 06:13:01;;;;;;;6.97;3.03;;;30.10;54.80;;;;;;5063650;28;20190;-74
2023/02/10 06:15:29;;;;;;;5.60;3.10;;;29.10;57.40;;;;;;5072457;28;20198;-77
2023/02/10 06:17:56;;;;;;;5.53;2.70;;;30.00;55.20;;;;;;5068224;28;20211;-70
2023/02/10 06:20:23;;;;;;;5.65;3.10;;;31.00;53.10;;;;;;5071705;28;20171;-78
2023/02/10 06:22:51;;;;;;;3.35;2.63;;;31.80;50.70;;;;;;5071716;28;20178;-74
2023/02/10 06:25:18;;;;;;;4.85;2.88;;;32.00;50.40;;;;;;5071298;28;20724;-72
2023/02/10 06:27:45;;;;;;;8.13;3.13;;;32.10;49.50;;;;;;5065921;28;20175;-71
2023/02/10 06:30:13;;;;;;;3.22;2.30;;;32.00;49.70;;;;;;5070269;28;20221;-72
2023/02/10 06:32:40;;;;;;;4.30;2.35;;;32.70;47.70;;;;;;5069452;28;20187;-71
2023/02/10 06:35:08;;;;;;;6.47;2.60;;;32.30;49.60;;;;;;5067861;28;20573;-75
2023/02/10 06:37:36;;;;;;;3.13;2.22;;;32.40;49.10;;;;;;5066710;28;20272;-72
2023/02/10 06:40:05;;;;;;;3.35;2.33;;;31.80;50.80;;;;;;5072160;28;20183;-71
2023/02/10 06:42:33;;;;;;;5.03;2.22;;;32.40;49.30;;;;;;5071652;28;20208;-73
2023/02/10 06:45:00;;;;;;;3.67;2.53;;;32.40;49.20;;;;;;5072899;28;20209;-70
2023/02/10 06:47:28;;;;;;;7.85;2.30;;;32.20;50.30;;;;;;5073516;28;20203;-74
2023/02/10 06:49:55;;;;;;;3.40;1.98;;;32.00;51.10;;;;;;5072356;28;20689;-70
2023/02/10 06:52:24;;;;;;;5.15;2.20;;;32.30;51.20;;;;;;5068876;28;20235;-71
2023/02/10 06:54:51;;;;;;;2.92;2.08;;;32.20;50.40;;;;;;5069831;28;20176;-73
2023/02/10 06:57:19;;;;;;;3.92;2.03;;;31.70;50.60;;;;;;5069940;28;20569;-73
2023/02/10 06:59:46;;;;;;;3.75;1.98;;;31.70;50.70;;;;;;5071652;28;20182;-72
2023/02/10 07:02:14;;;;;;;3.35;2.30;;;32.10;49.90;;;;;;5065298;28;20559;-72
2023/02/10 07:04:41;;;;;;;4.55;2.00;;;32.10;49.10;;;;;;5072522;28;20638;-70
2023/02/10 07:07:11;;;;;;;5.22;2.25;;;32.30;50.30;;;;;;5072500;28;20183;-70
2023/02/10 07:09:39;;;;;;;4.10;2.00;;;32.10;50.50;;;;;;5073042;28;20183;-70
2023/02/10 07:12:06;;;;;;;4.88;1.52;;;31.50;52.30;;;;;;5064240;28;20171;-71
2023/02/10 07:14:34;;;;;;;3.60;1.83;;;30.90;53.30;;;;;;5068925;28;20203;-70
2023/02/10 07:17:02;;;;;;;6.10;1.90;;;30.80;54.20;;;;;;5061678;28;20254;-69
2023/02/10 07:19:31;;;;;;;4.38;1.63;;;30.80;55.70;;;;;;5069331;28;20209;-73
2023/02/10 07:22:01;;;;;;;6.75;2.53;;;30.60;56.00;;;;;;5068685;28;20206;-70
2023/02/10 07:24:28;;;;;;;6.85;2.22;;;30.30;57.20;;;;;;5071909;28;20290;-71
2023/02/10 07:26:56;;;;;;;5.43;2.15;;;30.50;57.30;;;;;;5067673;28;20211;-69
2023/02/10 07:29:23;;;;;;;5.10;2.90;;;30.20;58.10;;;;;;5071794;28;20309;-70
2023/02/10 07:31:51;;;;;;;8.80;2.58;;;30.50;57.40;;;;;;5072667;28;20195;-71
2023/02/10 07:34:20;;;;;;;5.57;2.15;;;30.70;56.20;;;;;;5072280;28;20203;-71
2023/02/10 07:36:53;;;;;;;3.28;2.08;;;30.20;58.00;;;;;;5072294;28;20214;-70
2023/02/10 07:39:22;;;;;;;4.75;2.58;;;30.30;58.20;;;;;;5072371;28;20652;-71
2023/02/10 07:41:50;;;;;;;4.75;2.58;;;30.30;57.80;;;;;;5072445;28;20175;-71
2023/02/10 07:44:20;;;;;;;4.22;2.08;;;30.20;58.10;;;;;;5071904;28;20653;-70
2023/02/10 07:46:48;;;;;;;6.43;2.45;;;30.70;57.50;;;;;;5072537;28;20641;-70
2023/02/10 07:49:16;;;;;;;5.17;1.80;;;30.10;57.80;;;;;;5067540;28;20190;-70
2023/02/10 07:51:43;;;;;;;7.82;2.13;;;29.80;58.90;;;;;;5071977;28;20183;-69
2023/02/10 07:54:11;;;;;;;5.47;2.13;;;29.10;61.30;;;;;;5071841;28;20187;-69
2023/02/10 07:56:38;;;;;;;5.67;2.30;;;28.40;62.80;;;;;;5072520;28;20199;-70
2023/02/10 07:59:06;;;;;;;4.83;2.17;;;28.00;64.20;;;;;;5071522;28;20634;-70
2023/02/10 08:01:36;;;;;;;4.17;1.90;;;27.60;65.20;;;;;;5069084;28;20185;-68
2023/02/10 08:04:03;;;;;;;3.47;2.20;;;27.30;66.20;;;;;;5070471;28;20274;-70
2023/02/10 08:06:30;;;;;;;3.60;2.10;;;27.20;66.80;;;;;;5071489;28;20175;-70
2023/02/10 08:08:58;;;;;;;7.13;2.80;;;26.90;67.20;;;;;;5071755;28;20210;-67
2023/02/10 08:11:25;;;;;;;5.53;2.80;;;26.70;67.20;;;;;;5071040;28;20175;-69
2023/02/10 08:13:52;;;;;;;4.53;2.50;;;26.70;67.60;;;;;;5071161;28;20187;-69
2023/02/10 08:16:20;;;;;;;4.23;2.37;;;26.60;67.70;;;;;;5070734;28;20206;-70
2023/02/10 08:18:47;;;;;;;4.00;2.00;;;26.40;68.60;;;;;;5071852;28;20204;-71
2023/02/10 08:21:14;;;;;;;5.70;2.40;;;26.40;68.50;;;;;;5068227;28;20187;-70
2023/02/10 08:23:42;;;;;;;5.10;2.10;;;26.30;69.10;;;;;;5070462;28;20547;-69
2023/02/10 08:26:12;;;;;;;4.30;2.40;;;26.20;69.00;;;;;;5071407;28;20183;-70
2023/02/10 08:28:40;;;;;;;6.07;2.30;;;26.20;69.40;;;;;;5071663;28;20191;-73
2023/02/10 08:31:10;;;;;;;3.80;2.10;;;26.20;69.30;;;;;;5070600;28;20194;-72
2023/02/10 08:33:38;;;;;;;4.77;2.20;;;26.20;68.90;;;;;;5071729;28;20257;-71
2023/02/10 08:36:09;;;;;;;7.43;2.20;;;26.20;68.90;;;;;;5070965;28;20522;-71
2023/02/10 08:38:38;;;;;;;8.47;1.83;;;26.30;68.80;;;;;;5071354;28;20219;-71
2023/02/10 08:41:06;;;;;;;8.27;1.97;;;26.30;68.10;;;;;;5071316;28;20210;-71
2023/02/10 08:43:34;;;;;;;8.03;2.60;;;26.40;67.40;;;;;;5071628;28;20541;-71
2023/02/10 08:46:02;;;;;;;7.80;2.03;;;26.30;68.40;;;;;;5070416;28;20274;-70
2023/02/10 08:48:31;;;;;;;5.00;2.10;;;26.10;70.60;;;;;;5067010;28;20669;-71
2023/02/10 08:50:59;;;;;;;7.67;2.13;;;25.90;71.80;;;;;;5069029;28;20734;-70
2023/02/10 08:53:27;;;;;;;5.43;2.23;;;25.70;73.30;;;;;;5066190;28;20231;-69
2023/02/10 08:55:59;;;;;;;7.47;2.10;;;25.60;73.70;;;;;;5070658;28;20194;-71
2023/02/10 08:58:28;;;;;;;8.23;2.13;;;25.40;73.70;;;;;;5062157;28;20215;-70
2023/02/10 09:00:55;;;;;;;6.07;2.20;;;25.30;74.30;;;;;;5070287;28;20214;-71
2023/02/10 09:03:23;;;;;;;4.47;2.30;;;25.20;74.30;;;;;;5066746;28;20253;-71
2023/02/10 09:05:50;;;;;;;7.77;2.53;;;25.20;74.30;;;;;;5067277;28;20179;-70
2023/02/10 09:08:18;;;;;;;8.47;2.30;;;25.20;74.20;;;;;;5070250;28;20175;-71
2023/02/10 09:10:47;;;;;;;7.33;1.97;;;25.10;74.20;;;;;;5070693;28;20187;-70
2023/02/10 09:13:15;;;;;;;8.77;2.00;;;25.10;73.70;;;;;;5067501;28;20187;-72
2023/02/10 09:15:43;;;;;;;7.67;2.70;;;25.10;73.80;;;;;;5068792;28;20641;-73
2023/02/10 09:18:11;;;;;;;12.87;3.10;;;24.90;73.50;;;;;;5069985;28;20586;-72
2023/02/10 09:20:38;;;;;;;11.17;3.10;;;25.00;74.00;;;;;;5067114;28;20171;-73
2023/02/10 09:23:06;;;;;;;8.80;2.93;;;24.90;74.60;;;;;;5065424;28;20235;-72
2023/02/10 09:25:33;;;;;;;11.23;3.00;;;24.80;75.80;;;;;;5068475;28;20179;-71
2023/02/10 09:28:00;;;;;;;6.40;2.37;;;24.80;76.50;;;;;;5068080;28;20187;-72
2023/02/10 09:30:28;;;;;;;13.00;3.20;;;24.70;77.30;;;;;;5059126;28;20658;-71
2023/02/10 09:32:56;;;;;;;11.87;3.30;;;24.60;78.40;;;;;;5068788;28;20200;-72
2023/02/10 09:35:23;;;;;;;13.73;3.23;;;24.60;78.80;;;;;;5067869;28;20622;-72
2023/02/10 09:37:51;;;;;;;6.90;2.90;;;24.60;78.90;;;;;;5070666;28;20214;-71
2023/02/10 09:40:28;;;;;;;11.20;2.90;;;24.60;79.00;;;;;;5070922;28;20179;-72
2023/02/10 09:42:56;;;;;;;9.93;2.93;;;24.50;78.70;;;;;;5068436;28;20189;-73
2023/02/10 09:45:31;;;;;;;7.97;2.97;;;24.40;78.80;;;;;;5067523;28;20186;-72
2023/02/10 09:48:09;;;;;;;9.27;3.33;;;24.50;78.70;;;;;;5070049;28;20548;-73
2023/02/10 09:50:55;;;;;;;14.90;3.57;;;24.50;78.30;;;;;;5071407;28;20199;-72
2023/02/10 09:53:27;;;;;;;11.13;3.20;;;24.40;78.60;;;;;;5071585;28;20219;-71
2023/02/10 09:56:02;;;;;;;11.90;3.23;;;24.40;78.70;;;;;;5072500;28;20262;-72
2023/02/10 09:58:32;;;;;;;11.07;2.70;;;24.40;78.80;;;;;;5072777;28;20576;-74
2023/02/10 10:01:25;;;;;;;10.03;2.87;;;24.40;79.00;;;;;;5072871;28;20183;-70
2023/02/10 10:04:15;;;;;;;10.23;2.83;;;24.30;80.30;;;;;;5064656;28;20216;-72
2023/02/10 10:06:49;;;;;;;11.00;2.50;;;24.20;80.90;;;;;;5066839;28;20176;-74
2023/02/10 10:09:41;;;;;;;7.33;2.73;;;24.20;81.60;;;;;;5071893;28;20175;-73
2023/02/10 10:12:19;;;;;;;9.07;2.13;;;24.00;81.50;;;;;;5068512;28;20179;-73
2023/02/10 10:14:49;;;;;;;8.67;2.27;;;24.10;81.70;;;;;;5070439;28;20178;-71
2023/02/10 10:17:28;;;;;;;14.17;2.80;;;24.00;81.40;;;;;;5073472;28;20300;-70
2023/02/10 10:19:59;;;;;;;7.43;2.33;;;24.00;81.20;;;;;;5067600;28;20190;-69
2023/02/10 10:23:04;;;;;;;9.17;2.30;;;24.00;81.20;;;;;;5065365;28;20258;-69
2023/02/10 10:25:37;;;;;;;10.93;2.63;;;24.00;81.00;;;;;;5033112;28;20187;-70
2023/02/10 10:28:37;;;;;;;7.43;2.27;;;23.90;80.90;;;;;;5034306;28;20655;-74
2023/02/10 10:31:29;;;;;;;7.80;2.20;;;23.90;80.70;;;;;;5062760;28;20249;-68
2023/02/10 10:34:08;;;;;;;9.93;2.30;;;23.90;80.90;;;;;;5070673;28;20203;-69
2023/02/10 10:36:38;;;;;;;11.03;2.90;;;24.00;80.60;;;;;;5070030;28;20653;-70
2023/02/10 10:39:28;;;;;;;7.93;2.40;;;23.90;80.30;;;;;;5071632;28;20217;-68
2023/02/10 10:41:58;;;;;;;13.93;2.30;;;23.90;80.00;;;;;;5071024;28;20237;-69
2023/02/10 10:44:29;;;;;;;10.23;2.50;;;23.90;80.20;;;;;;5072584;28;20263;-70
2023/02/10 10:47:12;;;;;;;9.07;2.47;;;23.90;80.20;;;;;;5073377;28;20194;-69
2023/02/10 10:49:39;;;;;;;13.33;2.40;;;23.90;80.40;;;;;;5068109;28;20176;-69
2023/02/10 10:52:31;;;;;;;9.13;2.60;;;23.80;80.10;;;;;;5069083;28;20223;-71
2023/02/10 10:54:59;;;;;;;10.83;3.07;;;23.80;80.10;;;;;;5068921;28;20186;-71
2023/02/10 10:57:27;;;;;;;12.20;2.30;;;23.80;80.00;;;;;;5064635;28;20250;-71
2023/02/10 11:00:21;;;;;;;7.37;2.10;;;23.80;79.60;;;;;;5069861;28;20255;-71
2023/02/10 11:03:02;;;;;;;6.53;1.80;;;23.80;79.50;;;;;;5068870;28;20214;-71
2023/02/10 11:05:40;;;;;;;9.23;2.17;;;23.80;79.40;;;;;;5070435;28;20179;-72
2023/02/10 11:08:21;;;;;;;8.43;2.00;;;23.80;79.50;;;;;;5068746;28;20552;-72
2023/02/10 11:10:54;;;;;;;7.27;2.33;;;23.80;79.10;;;;;;5070397;28;20540;-71
2023/02/10 11:13:26;;;;;;;7.47;2.00;;;23.80;79.20;;;;;;5071798;28;20214;-71
2023/02/10 11:16:02;;;;;;;10.20;2.30;;;23.80;79.00;;;;;;5072180;28;20183;-71
2023/02/10 11:18:29;;;;;;;7.80;2.17;;;23.70;78.90;;;;;;5071890;28;20213;-71
2023/02/10 11:21:03;;;;;;;7.90;2.13;;;23.70;79.20;;;;;;5068852;28;20207;-71
2023/02/10 11:23:30;;;;;;;8.43;2.43;;;23.70;78.30;;;;;;5072038;28;20178;-71
2023/02/10 11:26:06;;;;;;;12.03;2.43;;;23.70;78.20;;;;;;5072571;28;20179;-71
2023/02/10 11:28:38;;;;;;;13.63;2.50;;;23.70;77.80;;;;;;5066564;28;20712;-72
2023/02/10 11:31:19;;;;;;;6.90;1.80;;;23.70;77.20;;;;;;5072400;28;20622;-72
2023/02/10 11:33:58;;;;;;;6.03;1.90;;;23.60;76.70;;;;;;5068985;28;20198;-71
2023/02/10 11:36:40;;;;;;;5.37;1.80;;;23.70;76.30;;;;;;5068787;28;20175;-71
2023/02/10 11:39:22;;;;;;;6.30;1.83;;;23.70;76.20;;;;;;5071744;28;20191;-70
2023/02/10 11:41:50;;;;;;;6.73;1.63;;;23.70;75.90;;;;;;5072565;28;20202;-70
2023/02/10 11:44:32;;;;;;;4.00;1.93;;;23.70;76.00;;;;;;5071722;28;20692;-71
2023/02/10 11:47:03;;;;;;;7.87;1.90;;;23.60;75.70;;;;;;5068141;28;20198;-72
2023/02/10 11:49:33;;;;;;;7.83;1.90;;;23.60;75.10;;;;;;5068496;28;20262;-72
2023/02/10 11:52:02;;;;;;;9.40;1.50;;;23.60;75.30;;;;;;5071650;28;20276;-72
2023/02/10 11:54:30;;;;;;;7.40;2.07;;;23.60;75.40;;;;;;5072061;28;20539;-71
2023/02/10 12:00:24;;;;;;;7.53;1.93;;;23.60;76.30;;;;;;5066168;28;20203;-73
2023/02/10 12:03:09;;;;;;;6.23;1.90;;;23.50;76.60;;;;;;5071201;28;20649;-72
2023/02/10 12:06:14;;;;;;;5.97;1.40;;;23.40;76.80;;;;;;5066525;28;20187;-73
2023/02/10 12:09:00;;;;;;;13.23;8.70;;;23.40;77.20;;;;;;5067169;28;20286;-72
2023/02/10 12:11:48;;;;;;;5.13;2.23;;;23.30;77.50;;;;;;5069214;28;20187;-73
2023/02/10 12:14:39;;;;;;;5.27;1.70;;;23.30;77.70;;;;;;5070654;28;20183;-71
2023/02/10 12:17:27;;;;;;;7.33;2.00;;;23.20;77.70;;;;;;5070376;28;20256;-73
2023/02/10 12:20:28;;;;;;;7.83;2.10;;;23.20;78.00;;;;;;5069152;28;20186;-70
2023/02/10 12:23:09;;;;;;;5.60;1.87;;;23.10;78.10;;;;;;5071129;28;20175;-71
2023/02/10 12:25:41;;;;;;;7.87;2.20;;;23.10;78.20;;;;;;5069901;28;20267;-71
2023/02/10 12:28:28;;;;;;;4.97;2.13;;;23.10;78.30;;;;;;5071188;28;20183;-70
2023/02/10 12:31:07;;;;;;;5.63;1.83;;;23.00;78.50;;;;;;5068980;28;20558;-69
2023/02/10 12:34:22;;;;;;;6.57;1.70;;;23.00;78.50;;;;;;5071482;28;20179;-70
2023/02/10 12:37:19;;;;;;;6.13;1.70;;;23.00;78.80;;;;;;5069962;28;20273;-72
2023/02/10 12:40:23;;;;;;;7.00;1.70;;;23.00;78.70;;;;;;5071068;28;20681;-73
2023/02/10 12:43:12;;;;;;;7.17;1.63;;;22.90;78.70;;;;;;5070239;28;20187;-72
2023/02/10 12:46:37;;;;;;;10.27;1.90;;;22.80;78.90;;;;;;5071102;28;20183;-72
2023/02/10 12:49:19;;;;;;;6.40;2.03;;;22.80;79.40;;;;;;5047932;28;20210;-73
2023/02/10 12:52:05;;;;;;;11.27;2.10;;;22.80;79.70;;;;;;5067753;28;20229;-73
2023/02/10 12:54:38;;;;;;;7.53;1.93;;;22.80;79.60;;;;;;5067050;28;20182;-72
2023/02/10 12:57:33;;;;;;;7.80;1.93;;;22.80;79.70;;;;;;5070207;28;20214;-73
2023/02/10 13:00:13;;;;;;;6.10;1.93;;;22.80;79.80;;;;;;5068979;28;20261;-71
2023/02/10 13:03:09;;;;;;;4.60;1.77;;;22.70;79.60;;;;;;5071253;28;20202;-71
2023/02/10 13:06:00;;;;;;;9.00;2.03;;;22.70;79.90;;;;;;5058482;28;20188;-70
2023/02/10 13:08:53;;;;;;;6.70;2.00;;;22.70;80.50;;;;;;5063115;28;20206;-70
2023/02/10 13:11:40;;;;;;;5.37;1.67;;;22.70;80.60;;;;;;5069512;28;20175;-70
2023/02/10 13:14:22;;;;;;;12.27;2.30;;;22.70;80.70;;;;;;5069688;28;20232;-73
2023/02/10 13:16:57;;;;;;;6.47;2.10;;;22.70;81.00;;;;;;5068159;28;20217;-72
2023/02/10 13:19:52;;;;;;;6.13;2.00;;;22.60;81.20;;;;;;5069951;28;20186;-73